sensor_id;sensor_type;location;lat;lon;timestamp;P1;durP1;ratioP1;P2;durP2;ratioP2
76833;SDS011;65793;42.678;23.332;2022-12-07T00:02:13;34.88;;;17.63;;
76833;SDS011;65793;42.678;23.332;2022-12-07T00:05:16;28.05;;;17.27;;
76833;SDS011;65793;42.678;23.332;2022-12-07T00:08:18;26.05;;;16.08;;
76833;SDS011;65793;42.678;23.332;2022-12-07T00:11:22;30.85;;;16.67;;
76833;SDS011;65793;42.678;23.332;2022-12-07T00:14:25;26.10;;;15.82;;
76833;SDS011;65793;42.678;23.332;2022-12-07T00:17:27;29.50;;;16.92;;
76833;SDS011;65793;42.678;23.332;2022-12-07T00:20:30;31.05;;;19.80;;
76833;SDS011;65793;42.678;23.332;2022-12-07T00:23:33;31.70;;;16.63;;
76833;SDS011;65793;42.678;23.332;2022-12-07T00:26:38;32.08;;;17.80;;
76833;SDS011;65793;42.678;23.332;2022-12-07T00:29:41;31.70;;;16.80;;
76833;SDS011;65793;42.678;23.332;2022-12-07T00:32:43;32.17;;;17.75;;
76833;SDS011;65793;42.678;23.332;2022-12-07T00:35:45;31.08;;;17.80;;
76833;SDS011;65793;42.678;23.332;2022-12-07T00:38:48;28.77;;;17.00;;
76833;SDS011;65793;42.678;23.332;2022-12-07T00:41:51;28.30;;;17.10;;
76833;SDS011;65793;42.678;23.332;2022-12-07T00:44:54;32.08;;;19.83;;
76833;SDS011;65793;42.678;23.332;2022-12-07T00:47:56;32.78;;;19.73;;
76833;SDS011;65793;42.678;23.332;2022-12-07T00:50:58;32.88;;;18.85;;
76833;SDS011;65793;42.678;23.332;2022-12-07T00:54:01;31.33;;;18.90;;
76833;SDS011;65793;42.678;23.332;2022-12-07T00:57:05;27.80;;;16.83;;
76833;SDS011;65793;42.678;23.332;2022-12-07T01:00:08;34.28;;;17.95;;
76833;SDS011;65793;42.678;23.332;2022-12-07T01:03:11;30.45;;;18.95;;
76833;SDS011;65793;42.678;23.332;2022-12-07T01:06:15;30.45;;;16.63;;
76833;SDS011;65793;42.678;23.332;2022-12-07T01:09:18;33.80;;;17.75;;
76833;SDS011;65793;42.678;23.332;2022-12-07T01:12:21;26.33;;;17.80;;
76833;SDS011;65793;42.678;23.332;2022-12-07T01:15:24;29.02;;;16.10;;
76833;SDS011;65793;42.678;23.332;2022-12-07T01:18:26;29.95;;;18.13;;
76833;SDS011;65793;42.678;23.332;2022-12-07T01:21:30;37.33;;;20.58;;
76833;SDS011;65793;42.678;23.332;2022-12-07T01:24:35;34.88;;;18.48;;
76833;SDS011;65793;42.678;23.332;2022-12-07T01:27:38;29.95;;;17.90;;
76833;SDS011;65793;42.678;23.332;2022-12-07T01:30:41;30.17;;;18.75;;
76833;SDS011;65793;42.678;23.332;2022-12-07T01:33:43;28.65;;;16.73;;
76833;SDS011;65793;42.678;23.332;2022-12-07T01:36:47;27.35;;;15.90;;
76833;SDS011;65793;42.678;23.332;2022-12-07T01:39:49;28.95;;;16.48;;
76833;SDS011;65793;42.678;23.332;2022-12-07T01:42:54;25.70;;;18.80;;
76833;SDS011;65793;42.678;23.332;2022-12-07T01:45:56;32.10;;;17.90;;
76833;SDS011;65793;42.678;23.332;2022-12-07T01:48:59;30.13;;;17.90;;
76833;SDS011;65793;42.678;23.332;2022-12-07T01:52:05;25.83;;;15.00;;
76833;SDS011;65793;42.678;23.332;2022-12-07T01:55:15;26.30;;;15.60;;
76833;SDS011;65793;42.678;23.332;2022-12-07T01:58:20;31.90;;;15.97;;
76833;SDS011;65793;42.678;23.332;2022-12-07T02:04:43;29.65;;;16.60;;
76833;SDS011;65793;42.678;23.332;2022-12-07T02:07:46;27.98;;;15.98;;
76833;SDS011;65793;42.678;23.332;2022-12-07T02:10:51;31.02;;;18.02;;
76833;SDS011;65793;42.678;23.332;2022-12-07T02:14:00;35.33;;;17.85;;
76833;SDS011;65793;42.678;23.332;2022-12-07T02:17:05;24.80;;;15.43;;
76833;SDS011;65793;42.678;23.332;2022-12-07T02:20:21;29.77;;;15.98;;
76833;SDS011;65793;42.678;23.332;2022-12-07T02:27:10;33.00;;;17.15;;
76833;SDS011;65793;42.678;23.332;2022-12-07T02:30:30;25.20;;;16.42;;
76833;SDS011;65793;42.678;23.332;2022-12-07T02:33:40;22.73;;;15.43;;
76833;SDS011;65793;42.678;23.332;2022-12-07T02:36:46;28.35;;;16.45;;
76833;SDS011;65793;42.678;23.332;2022-12-07T02:39:54;25.10;;;16.63;;
76833;SDS011;65793;42.678;23.332;2022-12-07T02:43:03;26.95;;;16.52;;
76833;SDS011;65793;42.678;23.332;2022-12-07T02:46:12;30.48;;;16.35;;
76833;SDS011;65793;42.678;23.332;2022-12-07T02:49:17;26.80;;;16.02;;
76833;SDS011;65793;42.678;23.332;2022-12-07T02:52:20;26.92;;;15.20;;
76833;SDS011;65793;42.678;23.332;2022-12-07T02:55:24;26.67;;;17.17;;
76833;SDS011;65793;42.678;23.332;2022-12-07T02:58:32;24.25;;;15.90;;
76833;SDS011;65793;42.678;23.332;2022-12-07T03:01:50;28.25;;;16.13;;
76833;SDS011;65793;42.678;23.332;2022-12-07T03:05:04;26.95;;;16.65;;
76833;SDS011;65793;42.678;23.332;2022-12-07T03:08:21;27.95;;;17.20;;
76833;SDS011;65793;42.678;23.332;2022-12-07T03:11:32;26.67;;;17.35;;
76833;SDS011;65793;42.678;23.332;2022-12-07T03:14:49;27.85;;;16.63;;
76833;SDS011;65793;42.678;23.332;2022-12-07T03:17:59;32.17;;;16.95;;
76833;SDS011;65793;42.678;23.332;2022-12-07T03:21:06;26.35;;;15.73;;
76833;SDS011;65793;42.678;23.332;2022-12-07T03:24:13;29.45;;;17.58;;
76833;SDS011;65793;42.678;23.332;2022-12-07T03:27:18;36.67;;;18.58;;
76833;SDS011;65793;42.678;23.332;2022-12-07T03:30:26;34.53;;;20.13;;
76833;SDS011;65793;42.678;23.332;2022-12-07T03:33:35;32.60;;;18.60;;
76833;SDS011;65793;42.678;23.332;2022-12-07T03:37:04;34.53;;;20.13;;
76833;SDS011;65793;42.678;23.332;2022-12-07T03:40:11;29.10;;;18.23;;
76833;SDS011;65793;42.678;23.332;2022-12-07T03:43:18;31.63;;;17.63;;
76833;SDS011;65793;42.678;23.332;2022-12-07T03:46:22;28.08;;;19.60;;
76833;SDS011;65793;42.678;23.332;2022-12-07T03:49:34;35.45;;;18.55;;
76833;SDS011;65793;42.678;23.332;2022-12-07T03:52:42;30.70;;;18.90;;
76833;SDS011;65793;42.678;23.332;2022-12-07T03:55:49;32.53;;;17.70;;
76833;SDS011;65793;42.678;23.332;2022-12-07T03:58:53;32.63;;;19.13;;
76833;SDS011;65793;42.678;23.332;2022-12-07T04:01:56;26.25;;;17.60;;
76833;SDS011;65793;42.678;23.332;2022-12-07T04:05:05;35.47;;;19.35;;
76833;SDS011;65793;42.678;23.332;2022-12-07T04:08:08;34.05;;;21.98;;
76833;SDS011;65793;42.678;23.332;2022-12-07T04:11:10;35.95;;;17.38;;
76833;SDS011;65793;42.678;23.332;2022-12-07T04:14:12;32.42;;;20.42;;
76833;SDS011;65793;42.678;23.332;2022-12-07T04:17:21;47.53;;;21.65;;
76833;SDS011;65793;42.678;23.332;2022-12-07T04:20:25;31.25;;;18.70;;
76833;SDS011;65793;42.678;23.332;2022-12-07T04:23:27;39.22;;;20.35;;
76833;SDS011;65793;42.678;23.332;2022-12-07T04:26:30;36.22;;;21.27;;
76833;SDS011;65793;42.678;23.332;2022-12-07T04:29:32;38.63;;;22.38;;
76833;SDS011;65793;42.678;23.332;2022-12-07T04:32:35;34.30;;;19.08;;
76833;SDS011;65793;42.678;23.332;2022-12-07T04:35:38;36.22;;;20.98;;
76833;SDS011;65793;42.678;23.332;2022-12-07T04:38:41;43.92;;;23.15;;
76833;SDS011;65793;42.678;23.332;2022-12-07T04:41:44;41.50;;;19.95;;
76833;SDS011;65793;42.678;23.332;2022-12-07T04:44:46;33.45;;;22.42;;
76833;SDS011;65793;42.678;23.332;2022-12-07T04:47:48;35.50;;;20.00;;
76833;SDS011;65793;42.678;23.332;2022-12-07T04:50:52;41.20;;;21.02;;
76833;SDS011;65793;42.678;23.332;2022-12-07T04:53:55;40.50;;;21.33;;
76833;SDS011;65793;42.678;23.332;2022-12-07T04:56:57;38.80;;;21.30;;
76833;SDS011;65793;42.678;23.332;2022-12-07T04:59:59;31.92;;;21.23;;
76833;SDS011;65793;42.678;23.332;2022-12-07T05:03:02;38.38;;;20.95;;
76833;SDS011;65793;42.678;23.332;2022-12-07T05:06:06;32.85;;;19.67;;
76833;SDS011;65793;42.678;23.332;2022-12-07T05:12:11;41.35;;;22.13;;
76833;SDS011;65793;42.678;23.332;2022-12-07T05:15:14;37.63;;;22.17;;
76833;SDS011;65793;42.678;23.332;2022-12-07T05:18:16;38.78;;;20.88;;
76833;SDS011;65793;42.678;23.332;2022-12-07T05:21:20;32.47;;;19.67;;
76833;SDS011;65793;42.678;23.332;2022-12-07T05:27:25;40.65;;;22.58;;
76833;SDS011;65793;42.678;23.332;2022-12-07T05:30:27;41.65;;;20.65;;
76833;SDS011;65793;42.678;23.332;2022-12-07T05:33:30;31.38;;;19.35;;
76833;SDS011;65793;42.678;23.332;2022-12-07T05:36:34;36.30;;;19.95;;
76833;SDS011;65793;42.678;23.332;2022-12-07T05:39:36;33.85;;;20.35;;
76833;SDS011;65793;42.678;23.332;2022-12-07T05:42:41;35.10;;;20.88;;
76833;SDS011;65793;42.678;23.332;2022-12-07T05:45:44;40.72;;;22.98;;
76833;SDS011;65793;42.678;23.332;2022-12-07T05:48:47;40.97;;;23.95;;
76833;SDS011;65793;42.678;23.332;2022-12-07T05:51:51;45.15;;;21.05;;
76833;SDS011;65793;42.678;23.332;2022-12-07T05:54:53;42.30;;;24.27;;
76833;SDS011;65793;42.678;23.332;2022-12-07T05:57:55;39.72;;;20.88;;
76833;SDS011;65793;42.678;23.332;2022-12-07T06:01:15;35.78;;;19.88;;
76833;SDS011;65793;42.678;23.332;2022-12-07T06:04:18;36.15;;;21.35;;
76833;SDS011;65793;42.678;23.332;2022-12-07T06:07:24;41.10;;;22.23;;
76833;SDS011;65793;42.678;23.332;2022-12-07T06:10:27;39.40;;;21.50;;
76833;SDS011;65793;42.678;23.332;2022-12-07T06:13:30;43.20;;;21.95;;
76833;SDS011;65793;42.678;23.332;2022-12-07T06:16:31;43.17;;;18.95;;
76833;SDS011;65793;42.678;23.332;2022-12-07T06:19:34;49.75;;;26.25;;
76833;SDS011;65793;42.678;23.332;2022-12-07T06:22:41;56.55;;;30.88;;
76833;SDS011;65793;42.678;23.332;2022-12-07T06:25:48;41.90;;;20.35;;
76833;SDS011;65793;42.678;23.332;2022-12-07T06:28:50;45.25;;;24.48;;
76833;SDS011;65793;42.678;23.332;2022-12-07T06:31:53;43.03;;;23.13;;
76833;SDS011;65793;42.678;23.332;2022-12-07T06:34:55;39.97;;;23.60;;
76833;SDS011;65793;42.678;23.332;2022-12-07T06:38:00;37.45;;;20.45;;
76833;SDS011;65793;42.678;23.332;2022-12-07T06:41:04;38.15;;;20.38;;
76833;SDS011;65793;42.678;23.332;2022-12-07T06:44:07;45.17;;;20.65;;
76833;SDS011;65793;42.678;23.332;2022-12-07T06:47:10;41.92;;;23.10;;
76833;SDS011;65793;42.678;23.332;2022-12-07T06:50:14;43.15;;;22.85;;
76833;SDS011;65793;42.678;23.332;2022-12-07T06:53:17;46.28;;;24.05;;
76833;SDS011;65793;42.678;23.332;2022-12-07T06:56:21;48.08;;;23.13;;
76833;SDS011;65793;42.678;23.332;2022-12-07T06:59:24;48.00;;;25.92;;
76833;SDS011;65793;42.678;23.332;2022-12-07T07:02:26;66.50;;;35.22;;
76833;SDS011;65793;42.678;23.332;2022-12-07T07:05:29;65.27;;;31.17;;
76833;SDS011;65793;42.678;23.332;2022-12-07T07:08:33;56.22;;;29.30;;
76833;SDS011;65793;42.678;23.332;2022-12-07T07:14:38;42.17;;;22.48;;
76833;SDS011;65793;42.678;23.332;2022-12-07T07:20:45;44.63;;;21.50;;
76833;SDS011;65793;42.678;23.332;2022-12-07T07:23:54;35.40;;;19.50;;
76833;SDS011;65793;42.678;23.332;2022-12-07T07:27:16;41.63;;;22.88;;
76833;SDS011;65793;42.678;23.332;2022-12-07T07:30:18;44.78;;;23.60;;
76833;SDS011;65793;42.678;23.332;2022-12-07T07:33:22;38.28;;;20.38;;
76833;SDS011;65793;42.678;23.332;2022-12-07T07:36:25;39.80;;;19.65;;
76833;SDS011;65793;42.678;23.332;2022-12-07T07:39:30;41.63;;;22.02;;
76833;SDS011;65793;42.678;23.332;2022-12-07T07:42:32;35.80;;;20.10;;
76833;SDS011;65793;42.678;23.332;2022-12-07T07:45:35;38.65;;;20.85;;
76833;SDS011;65793;42.678;23.332;2022-12-07T07:48:38;39.15;;;22.27;;
76833;SDS011;65793;42.678;23.332;2022-12-07T07:51:40;36.72;;;21.15;;
76833;SDS011;65793;42.678;23.332;2022-12-07T07:54:45;34.95;;;19.85;;
76833;SDS011;65793;42.678;23.332;2022-12-07T07:57:48;37.88;;;22.25;;
76833;SDS011;65793;42.678;23.332;2022-12-07T08:00:51;43.83;;;24.40;;
76833;SDS011;65793;42.678;23.332;2022-12-07T08:03:54;39.13;;;20.65;;
76833;SDS011;65793;42.678;23.332;2022-12-07T08:06:58;33.25;;;22.00;;
76833;SDS011;65793;42.678;23.332;2022-12-07T08:10:11;36.03;;;20.48;;
76833;SDS011;65793;42.678;23.332;2022-12-07T08:13:16;34.80;;;20.55;;
76833;SDS011;65793;42.678;23.332;2022-12-07T08:16:20;34.97;;;22.83;;
76833;SDS011;65793;42.678;23.332;2022-12-07T08:19:23;39.53;;;22.77;;
76833;SDS011;65793;42.678;23.332;2022-12-07T08:22:25;35.55;;;21.92;;
76833;SDS011;65793;42.678;23.332;2022-12-07T08:25:33;42.40;;;22.65;;
76833;SDS011;65793;42.678;23.332;2022-12-07T08:28:36;41.40;;;25.00;;
76833;SDS011;65793;42.678;23.332;2022-12-07T08:31:39;37.88;;;22.80;;
76833;SDS011;65793;42.678;23.332;2022-12-07T08:34:42;50.03;;;26.65;;
76833;SDS011;65793;42.678;23.332;2022-12-07T08:37:45;44.60;;;24.53;;
76833;SDS011;65793;42.678;23.332;2022-12-07T08:40:55;41.70;;;25.95;;
76833;SDS011;65793;42.678;23.332;2022-12-07T08:43:57;50.05;;;28.30;;
76833;SDS011;65793;42.678;23.332;2022-12-07T08:47:00;38.42;;;24.38;;
76833;SDS011;65793;42.678;23.332;2022-12-07T08:50:07;43.72;;;25.33;;
76833;SDS011;65793;42.678;23.332;2022-12-07T08:53:17;45.15;;;24.58;;
76833;SDS011;65793;42.678;23.332;2022-12-07T08:56:33;44.88;;;25.95;;
76833;SDS011;65793;42.678;23.332;2022-12-07T08:59:42;38.10;;;23.63;;
76833;SDS011;65793;42.678;23.332;2022-12-07T09:02:57;41.67;;;23.17;;
76833;SDS011;65793;42.678;23.332;2022-12-07T09:06:00;42.70;;;24.55;;
76833;SDS011;65793;42.678;23.332;2022-12-07T09:09:07;42.55;;;24.27;;
76833;SDS011;65793;42.678;23.332;2022-12-07T09:12:14;36.65;;;24.80;;
76833;SDS011;65793;42.678;23.332;2022-12-07T09:15:19;40.33;;;23.67;;
76833;SDS011;65793;42.678;23.332;2022-12-07T09:18:21;36.47;;;21.30;;
76833;SDS011;65793;42.678;23.332;2022-12-07T09:21:24;30.73;;;20.67;;
76833;SDS011;65793;42.678;23.332;2022-12-07T09:24:27;39.20;;;22.98;;
76833;SDS011;65793;42.678;23.332;2022-12-07T09:27:32;39.72;;;23.02;;
76833;SDS011;65793;42.678;23.332;2022-12-07T09:30:34;39.67;;;22.52;;
76833;SDS011;65793;42.678;23.332;2022-12-07T09:33:37;35.47;;;23.70;;
76833;SDS011;65793;42.678;23.332;2022-12-07T09:36:43;42.95;;;26.23;;
76833;SDS011;65793;42.678;23.332;2022-12-07T09:39:51;40.20;;;25.27;;
76833;SDS011;65793;42.678;23.332;2022-12-07T09:42:57;38.30;;;24.17;;
76833;SDS011;65793;42.678;23.332;2022-12-07T09:46:02;38.08;;;22.75;;
76833;SDS011;65793;42.678;23.332;2022-12-07T09:52:17;50.72;;;26.00;;
76833;SDS011;65793;42.678;23.332;2022-12-07T09:55:22;39.13;;;24.45;;
76833;SDS011;65793;42.678;23.332;2022-12-07T09:58:36;44.92;;;26.30;;
76833;SDS011;65793;42.678;23.332;2022-12-07T10:01:44;39.33;;;23.85;;
76833;SDS011;65793;42.678;23.332;2022-12-07T10:04:55;44.50;;;25.90;;
76833;SDS011;65793;42.678;23.332;2022-12-07T10:08:07;44.13;;;26.40;;
76833;SDS011;65793;42.678;23.332;2022-12-07T10:11:13;42.17;;;25.25;;
76833;SDS011;65793;42.678;23.332;2022-12-07T10:14:24;38.00;;;26.42;;
76833;SDS011;65793;42.678;23.332;2022-12-07T10:17:33;39.30;;;24.33;;
76833;SDS011;65793;42.678;23.332;2022-12-07T10:20:41;50.75;;;27.75;;
76833;SDS011;65793;42.678;23.332;2022-12-07T10:23:58;45.08;;;27.10;;
76833;SDS011;65793;42.678;23.332;2022-12-07T10:27:02;39.00;;;24.30;;
76833;SDS011;65793;42.678;23.332;2022-12-07T10:30:12;36.27;;;22.67;;
76833;SDS011;65793;42.678;23.332;2022-12-07T10:36:39;36.75;;;24.10;;
76833;SDS011;65793;42.678;23.332;2022-12-07T10:39:42;32.10;;;21.42;;
76833;SDS011;65793;42.678;23.332;2022-12-07T10:42:46;34.78;;;21.05;;
76833;SDS011;65793;42.678;23.332;2022-12-07T10:46:29;37.33;;;21.27;;
76833;SDS011;65793;42.678;23.332;2022-12-07T10:50:02;29.08;;;20.52;;
76833;SDS011;65793;42.678;23.332;2022-12-07T10:53:33;39.47;;;22.27;;
76833;SDS011;65793;42.678;23.332;2022-12-07T10:56:56;41.30;;;24.38;;
76833;SDS011;65793;42.678;23.332;2022-12-07T11:00:24;34.95;;;21.75;;
76833;SDS011;65793;42.678;23.332;2022-12-07T11:13:48;32.30;;;20.92;;
76833;SDS011;65793;42.678;23.332;2022-12-07T11:16:59;37.58;;;22.42;;
76833;SDS011;65793;42.678;23.332;2022-12-07T11:20:12;33.63;;;20.83;;
76833;SDS011;65793;42.678;23.332;2022-12-07T11:23:27;32.17;;;19.50;;
76833;SDS011;65793;42.678;23.332;2022-12-07T11:26:42;32.88;;;19.35;;
76833;SDS011;65793;42.678;23.332;2022-12-07T11:30:03;32.08;;;19.98;;
76833;SDS011;65793;42.678;23.332;2022-12-07T11:33:15;25.50;;;19.73;;
76833;SDS011;65793;42.678;23.332;2022-12-07T11:36:31;29.67;;;19.75;;
76833;SDS011;65793;42.678;23.332;2022-12-07T11:39:40;29.35;;;18.15;;
76833;SDS011;65793;42.678;23.332;2022-12-07T11:42:49;31.58;;;19.92;;
76833;SDS011;65793;42.678;23.332;2022-12-07T11:45:57;29.38;;;18.88;;
76833;SDS011;65793;42.678;23.332;2022-12-07T11:49:09;27.33;;;18.30;;
76833;SDS011;65793;42.678;23.332;2022-12-07T11:52:17;32.17;;;18.05;;
76833;SDS011;65793;42.678;23.332;2022-12-07T11:55:26;27.50;;;18.17;;
76833;SDS011;65793;42.678;23.332;2022-12-07T11:58:39;30.10;;;17.83;;
76833;SDS011;65793;42.678;23.332;2022-12-07T12:01:52;28.67;;;17.48;;
76833;SDS011;65793;42.678;23.332;2022-12-07T12:04:58;30.70;;;19.98;;
76833;SDS011;65793;42.678;23.332;2022-12-07T12:08:11;28.52;;;18.52;;
76833;SDS011;65793;42.678;23.332;2022-12-07T12:11:19;27.98;;;16.25;;
76833;SDS011;65793;42.678;23.332;2022-12-07T12:14:42;27.52;;;20.02;;
76833;SDS011;65793;42.678;23.332;2022-12-07T12:18:02;24.67;;;16.27;;
76833;SDS011;65793;42.678;23.332;2022-12-07T12:21:15;22.55;;;14.55;;
76833;SDS011;65793;42.678;23.332;2022-12-07T12:24:22;21.20;;;15.43;;
76833;SDS011;65793;42.678;23.332;2022-12-07T12:27:27;26.08;;;17.00;;
76833;SDS011;65793;42.678;23.332;2022-12-07T12:30:33;25.02;;;14.85;;
76833;SDS011;65793;42.678;23.332;2022-12-07T12:33:38;21.20;;;14.70;;
76833;SDS011;65793;42.678;23.332;2022-12-07T12:36:46;25.00;;;12.65;;
76833;SDS011;65793;42.678;23.332;2022-12-07T12:46:54;19.88;;;13.00;;
76833;SDS011;65793;42.678;23.332;2022-12-07T12:50:14;27.88;;;15.02;;
76833;SDS011;65793;42.678;23.332;2022-12-07T12:53:20;21.70;;;13.32;;
76833;SDS011;65793;42.678;23.332;2022-12-07T12:56:28;24.35;;;15.63;;
76833;SDS011;65793;42.678;23.332;2022-12-07T12:59:40;20.20;;;12.65;;
76833;SDS011;65793;42.678;23.332;2022-12-07T13:02:47;23.30;;;13.02;;
76833;SDS011;65793;42.678;23.332;2022-12-07T13:09:24;16.13;;;11.32;;
76833;SDS011;65793;42.678;23.332;2022-12-07T13:12:28;26.38;;;15.52;;
76833;SDS011;65793;42.678;23.332;2022-12-07T13:15:31;17.70;;;11.88;;
76833;SDS011;65793;42.678;23.332;2022-12-07T13:18:35;23.65;;;11.90;;
76833;SDS011;65793;42.678;23.332;2022-12-07T13:21:41;20.10;;;13.00;;
76833;SDS011;65793;42.678;23.332;2022-12-07T13:24:47;23.00;;;11.85;;
76833;SDS011;65793;42.678;23.332;2022-12-07T13:27:54;13.27;;;10.18;;
76833;SDS011;65793;42.678;23.332;2022-12-07T13:31:11;14.48;;;12.00;;
76833;SDS011;65793;42.678;23.332;2022-12-07T13:34:29;20.50;;;13.43;;
76833;SDS011;65793;42.678;23.332;2022-12-07T13:37:48;17.17;;;10.70;;
76833;SDS011;65793;42.678;23.332;2022-12-07T13:41:12;20.38;;;11.10;;
76833;SDS011;65793;42.678;23.332;2022-12-07T13:44:21;18.10;;;11.75;;
76833;SDS011;65793;42.678;23.332;2022-12-07T13:47:31;22.00;;;11.13;;
76833;SDS011;65793;42.678;23.332;2022-12-07T13:50:52;17.23;;;10.88;;
76833;SDS011;65793;42.678;23.332;2022-12-07T13:54:22;16.55;;;10.50;;
76833;SDS011;65793;42.678;23.332;2022-12-07T14:13:28;21.08;;;12.70;;
76833;SDS011;65793;42.678;23.332;2022-12-07T14:16:34;15.73;;;10.77;;
76833;SDS011;65793;42.678;23.332;2022-12-07T14:19:47;17.83;;;12.48;;
76833;SDS011;65793;42.678;23.332;2022-12-07T14:22:54;17.38;;;11.85;;
76833;SDS011;65793;42.678;23.332;2022-12-07T14:26:04;21.30;;;12.82;;
76833;SDS011;65793;42.678;23.332;2022-12-07T14:29:20;15.48;;;10.38;;
76833;SDS011;65793;42.678;23.332;2022-12-07T14:32:30;18.33;;;13.32;;
76833;SDS011;65793;42.678;23.332;2022-12-07T14:35:34;19.25;;;12.25;;
76833;SDS011;65793;42.678;23.332;2022-12-07T14:38:41;23.05;;;16.10;;
76833;SDS011;65793;42.678;23.332;2022-12-07T14:41:43;19.10;;;12.77;;
76833;SDS011;65793;42.678;23.332;2022-12-07T14:44:54;25.00;;;14.38;;
76833;SDS011;65793;42.678;23.332;2022-12-07T14:47:58;30.85;;;17.00;;
76833;SDS011;65793;42.678;23.332;2022-12-07T14:51:00;26.08;;;14.38;;
76833;SDS011;65793;42.678;23.332;2022-12-07T14:54:02;18.15;;;12.60;;
76833;SDS011;65793;42.678;23.332;2022-12-07T15:00:15;19.80;;;12.90;;
76833;SDS011;65793;42.678;23.332;2022-12-07T15:03:19;20.63;;;12.98;;
76833;SDS011;65793;42.678;23.332;2022-12-07T15:06:21;22.77;;;12.90;;
76833;SDS011;65793;42.678;23.332;2022-12-07T15:09:23;25.23;;;14.30;;
76833;SDS011;65793;42.678;23.332;2022-12-07T15:12:25;23.73;;;13.75;;
76833;SDS011;65793;42.678;23.332;2022-12-07T15:15:28;18.58;;;13.10;;
76833;SDS011;65793;42.678;23.332;2022-12-07T15:18:30;26.33;;;14.30;;
76833;SDS011;65793;42.678;23.332;2022-12-07T15:21:33;24.63;;;13.82;;
76833;SDS011;65793;42.678;23.332;2022-12-07T15:24:35;20.58;;;13.35;;
76833;SDS011;65793;42.678;23.332;2022-12-07T15:27:37;29.30;;;15.90;;
76833;SDS011;65793;42.678;23.332;2022-12-07T15:30:41;20.85;;;13.10;;
76833;SDS011;65793;42.678;23.332;2022-12-07T15:33:44;35.65;;;16.08;;
76833;SDS011;65793;42.678;23.332;2022-12-07T15:36:46;33.88;;;18.15;;
76833;SDS011;65793;42.678;23.332;2022-12-07T15:39:48;33.03;;;17.90;;
76833;SDS011;65793;42.678;23.332;2022-12-07T15:42:51;28.65;;;18.40;;
76833;SDS011;65793;42.678;23.332;2022-12-07T15:45:55;24.65;;;14.10;;
76833;SDS011;65793;42.678;23.332;2022-12-07T15:48:56;22.95;;;13.45;;
76833;SDS011;65793;42.678;23.332;2022-12-07T15:51:58;21.75;;;13.00;;
76833;SDS011;65793;42.678;23.332;2022-12-07T15:54:59;24.85;;;15.70;;
76833;SDS011;65793;42.678;23.332;2022-12-07T15:58:04;28.95;;;14.55;;
76833;SDS011;65793;42.678;23.332;2022-12-07T16:01:11;19.50;;;13.18;;
76833;SDS011;65793;42.678;23.332;2022-12-07T16:04:14;30.55;;;16.10;;
76833;SDS011;65793;42.678;23.332;2022-12-07T16:07:16;37.88;;;16.70;;
76833;SDS011;65793;42.678;23.332;2022-12-07T16:10:20;31.50;;;16.55;;
76833;SDS011;65793;42.678;23.332;2022-12-07T16:13:22;50.72;;;25.00;;
76833;SDS011;65793;42.678;23.332;2022-12-07T16:16:26;47.97;;;21.83;;
76833;SDS011;65793;42.678;23.332;2022-12-07T16:22:32;40.63;;;21.23;;
76833;SDS011;65793;42.678;23.332;2022-12-07T16:25:34;38.67;;;20.55;;
76833;SDS011;65793;42.678;23.332;2022-12-07T16:28:36;48.28;;;24.00;;
76833;SDS011;65793;42.678;23.332;2022-12-07T16:31:40;42.78;;;22.77;;
76833;SDS011;65793;42.678;23.332;2022-12-07T16:34:43;42.75;;;22.88;;
76833;SDS011;65793;42.678;23.332;2022-12-07T16:37:45;63.05;;;29.85;;
76833;SDS011;65793;42.678;23.332;2022-12-07T16:40:47;53.42;;;27.40;;
76833;SDS011;65793;42.678;23.332;2022-12-07T16:43:50;58.03;;;28.58;;
76833;SDS011;65793;42.678;23.332;2022-12-07T16:46:53;46.88;;;26.63;;
76833;SDS011;65793;42.678;23.332;2022-12-07T16:49:55;51.90;;;31.48;;
76833;SDS011;65793;42.678;23.332;2022-12-07T16:52:57;58.75;;;31.45;;
76833;SDS011;65793;42.678;23.332;2022-12-07T16:56:00;56.63;;;31.30;;
76833;SDS011;65793;42.678;23.332;2022-12-07T16:59:03;61.17;;;33.10;;
76833;SDS011;65793;42.678;23.332;2022-12-07T17:02:08;58.97;;;32.58;;
76833;SDS011;65793;42.678;23.332;2022-12-07T17:05:12;55.03;;;29.80;;
76833;SDS011;65793;42.678;23.332;2022-12-07T17:08:17;61.58;;;34.58;;
76833;SDS011;65793;42.678;23.332;2022-12-07T17:11:20;58.70;;;33.88;;
76833;SDS011;65793;42.678;23.332;2022-12-07T17:14:25;57.65;;;33.78;;
76833;SDS011;65793;42.678;23.332;2022-12-07T17:17:46;61.22;;;32.60;;
76833;SDS011;65793;42.678;23.332;2022-12-07T17:20:52;74.38;;;36.10;;
76833;SDS011;65793;42.678;23.332;2022-12-07T17:23:57;56.60;;;33.27;;
76833;SDS011;65793;42.678;23.332;2022-12-07T17:27:00;58.92;;;33.13;;
76833;SDS011;65793;42.678;23.332;2022-12-07T17:30:07;77.80;;;36.58;;
76833;SDS011;65793;42.678;23.332;2022-12-07T17:33:14;71.72;;;38.40;;
76833;SDS011;65793;42.678;23.332;2022-12-07T17:36:19;66.32;;;33.60;;
76833;SDS011;65793;42.678;23.332;2022-12-07T17:42:24;63.10;;;33.58;;
76833;SDS011;65793;42.678;23.332;2022-12-07T17:45:39;62.15;;;35.22;;
76833;SDS011;65793;42.678;23.332;2022-12-07T17:48:43;71.13;;;36.08;;
76833;SDS011;65793;42.678;23.332;2022-12-07T17:51:46;71.60;;;40.58;;
76833;SDS011;65793;42.678;23.332;2022-12-07T17:55:06;74.35;;;36.65;;
76833;SDS011;65793;42.678;23.332;2022-12-07T17:58:08;77.75;;;40.05;;
76833;SDS011;65793;42.678;23.332;2022-12-07T18:01:10;75.80;;;39.90;;
76833;SDS011;65793;42.678;23.332;2022-12-07T18:04:14;74.25;;;41.15;;
76833;SDS011;65793;42.678;23.332;2022-12-07T18:07:17;91.63;;;44.75;;
76833;SDS011;65793;42.678;23.332;2022-12-07T18:10:21;94.32;;;48.50;;
76833;SDS011;65793;42.678;23.332;2022-12-07T18:13:25;80.97;;;44.50;;
76833;SDS011;65793;42.678;23.332;2022-12-07T18:16:56;97.72;;;43.80;;
76833;SDS011;65793;42.678;23.332;2022-12-07T18:20:56;89.43;;;45.25;;
76833;SDS011;65793;42.678;23.332;2022-12-07T18:24:01;101.72;;;48.05;;
76833;SDS011;65793;42.678;23.332;2022-12-07T18:27:09;82.78;;;46.30;;
76833;SDS011;65793;42.678;23.332;2022-12-07T18:30:12;96.50;;;54.50;;
76833;SDS011;65793;42.678;23.332;2022-12-07T18:33:18;87.05;;;50.90;;
76833;SDS011;65793;42.678;23.332;2022-12-07T18:36:29;79.80;;;47.03;;
76833;SDS011;65793;42.678;23.332;2022-12-07T18:46:47;82.85;;;45.65;;
76833;SDS011;65793;42.678;23.332;2022-12-07T18:49:49;76.15;;;47.38;;
76833;SDS011;65793;42.678;23.332;2022-12-07T18:52:57;83.07;;;42.67;;
76833;SDS011;65793;42.678;23.332;2022-12-07T18:56:01;77.43;;;43.40;;
76833;SDS011;65793;42.678;23.332;2022-12-07T18:59:05;70.22;;;41.95;;
76833;SDS011;65793;42.678;23.332;2022-12-07T19:02:25;72.35;;;43.17;;
76833;SDS011;65793;42.678;23.332;2022-12-07T19:05:27;73.55;;;41.95;;
76833;SDS011;65793;42.678;23.332;2022-12-07T19:08:35;59.95;;;37.83;;
76833;SDS011;65793;42.678;23.332;2022-12-07T19:11:39;71.68;;;43.25;;
76833;SDS011;65793;42.678;23.332;2022-12-07T19:14:51;52.78;;;27.58;;